sensor_id;sensor_type;location;lat;lon;timestamp;pressure;altitude;pressure_sealevel;temperature;humidity
6038;BME280;3047;42.600;23.470;2023-07-31T00:02:24;92804.94;;;20.03;100.00
6038;BME280;3047;42.600;23.470;2023-07-31T00:04:51;92796.59;;;20.12;100.00
6038;BME280;3047;42.600;23.470;2023-07-31T00:07:17;92798.34;;;20.12;100.00
6038;BME280;3047;42.600;23.470;2023-07-31T00:09:44;92776.41;;;20.08;100.00
6038;BME280;3047;42.600;23.470;2023-07-31T00:12:12;92793.97;;;20.25;100.00
6038;BME280;3047;42.600;23.470;2023-07-31T00:14:39;92792.97;;;20.28;100.00
6038;BME280;3047;42.600;23.470;2023-07-31T00:17:05;92798.28;;;20.24;100.00
6038;BME280;3047;42.600;23.470;2023-07-31T00:19:32;92792.88;;;20.16;100.00
6038;BME280;3047;42.600;23.470;2023-07-31T00:22:00;92796.66;;;20.23;100.00
6038;BME280;3047;42.600;23.470;2023-07-31T00:24:26;92798.94;;;20.15;100.00
6038;BME280;3047;42.600;23.470;2023-07-31T00:26:53;92803.34;;;20.13;100.00
6038;BME280;3047;42.600;23.470;2023-07-31T00:29:21;92758.75;;;19.79;100.00
6038;BME280;3047;42.600;23.470;2023-07-31T00:31:48;92790.53;;;20.13;100.00
6038;BME280;3047;42.600;23.470;2023-07-31T00:34:15;92795.72;;;20.24;100.00
6038;BME280;3047;42.600;23.470;2023-07-31T00:36:41;92790.59;;;20.24;100.00
6038;BME280;3047;42.600;23.470;2023-07-31T00:39:08;92785.41;;;20.13;100.00
6038;BME280;3047;42.600;23.470;2023-07-31T00:41:35;92783.34;;;20.18;100.00
6038;BME280;3047;42.600;23.470;2023-07-31T00:44:01;92749.47;;;20.02;100.00
6038;BME280;3047;42.600;23.470;2023-07-31T00:46:29;92779.84;;;20.19;100.00
6038;BME280;3047;42.600;23.470;2023-07-31T00:48:57;92772.50;;;20.15;100.00
6038;BME280;3047;42.600;23.470;2023-07-31T00:51:24;92755.03;;;20.20;100.00
6038;BME280;3047;42.600;23.470;2023-07-31T00:53:51;92753.47;;;20.17;100.00
6038;BME280;3047;42.600;23.470;2023-07-31T00:56:21;92746.94;;;20.13;100.00
6038;BME280;3047;42.600;23.470;2023-07-31T00:58:48;92758.94;;;20.13;100.00
6038;BME280;3047;42.600;23.470;2023-07-31T01:01:15;92759.13;;;20.22;100.00
6038;BME280;3047;42.600;23.470;2023-07-31T01:03:43;92760.03;;;20.21;100.00
6038;BME280;3047;42.600;23.470;2023-07-31T01:06:22;92761.47;;;19.89;100.00
6038;BME280;3047;42.600;23.470;2023-07-31T01:08:54;92757.47;;;19.97;100.00
6038;BME280;3047;42.600;23.470;2023-07-31T01:11:27;92758.50;;;19.95;100.00
6038;BME280;3047;42.600;23.470;2023-07-31T01:13:54;92757.19;;;19.76;100.00
6038;BME280;3047;42.600;23.470;2023-07-31T01:16:21;92756.25;;;19.90;100.00
6038;BME280;3047;42.600;23.470;2023-07-31T01:18:49;92748.38;;;19.93;100.00
6038;BME280;3047;42.600;23.470;2023-07-31T01:21:28;92755.22;;;19.93;100.00
6038;BME280;3047;42.600;23.470;2023-07-31T01:24:22;92752.44;;;19.96;100.00
6038;BME280;3047;42.600;23.470;2023-07-31T01:26:55;92751.84;;;19.92;100.00
6038;BME280;3047;42.600;23.470;2023-07-31T01:29:29;92707.09;;;19.72;100.00
6038;BME280;3047;42.600;23.470;2023-07-31T01:32:01;92748.13;;;19.96;100.00
6038;BME280;3047;42.600;23.470;2023-07-31T01:34:29;92734.66;;;19.82;100.00
6038;BME280;3047;42.600;23.470;2023-07-31T01:36:56;92730.34;;;19.82;100.00
6038;BME280;3047;42.600;23.470;2023-07-31T01:39:23;92743.53;;;19.89;100.00
6038;BME280;3047;42.600;23.470;2023-07-31T01:41:51;92740.47;;;19.84;100.00
6038;BME280;3047;42.600;23.470;2023-07-31T01:44:18;92735.50;;;19.69;100.00
6038;BME280;3047;42.600;23.470;2023-07-31T01:46:45;92728.31;;;19.74;100.00
6038;BME280;3047;42.600;23.470;2023-07-31T01:49:11;92732.91;;;19.82;100.00
6038;BME280;3047;42.600;23.470;2023-07-31T01:51:38;92726.34;;;19.78;100.00
6038;BME280;3047;42.600;23.470;2023-07-31T01:54:05;92714.06;;;19.70;100.00
6038;BME280;3047;42.600;23.470;2023-07-31T01:56:31;92739.41;;;19.99;100.00
6038;BME280;3047;42.600;23.470;2023-07-31T01:58:59;92737.19;;;19.94;100.00
6038;BME280;3047;42.600;23.470;2023-07-31T02:01:26;92739.41;;;19.99;100.00
6038;BME280;3047;42.600;23.470;2023-07-31T02:03:53;92743.13;;;19.95;100.00
6038;BME280;3047;42.600;23.470;2023-07-31T02:06:19;92744.75;;;19.96;100.00
6038;BME280;3047;42.600;23.470;2023-07-31T02:08:47;92752.66;;;19.93;100.00
6038;BME280;3047;42.600;23.470;2023-07-31T02:11:14;92755.28;;;20.04;100.00
6038;BME280;3047;42.600;23.470;2023-07-31T02:13:41;92746.94;;;19.89;100.00
6038;BME280;3047;42.600;23.470;2023-07-31T02:16:09;92748.66;;;19.89;100.00
6038;BME280;3047;42.600;23.470;2023-07-31T02:18:35;92757.34;;;19.99;100.00
6038;BME280;3047;42.600;23.470;2023-07-31T02:21:02;92745.56;;;19.96;100.00
6038;BME280;3047;42.600;23.470;2023-07-31T02:23:29;92763.94;;;19.90;100.00
6038;BME280;3047;42.600;23.470;2023-07-31T02:25:56;92767.78;;;20.09;100.00
6038;BME280;3047;42.600;23.470;2023-07-31T02:28:22;92729.28;;;19.85;100.00
6038;BME280;3047;42.600;23.470;2023-07-31T02:30:50;92782.91;;;20.24;100.00
6038;BME280;3047;42.600;23.470;2023-07-31T02:33:18;92773.44;;;20.14;100.00
6038;BME280;3047;42.600;23.470;2023-07-31T02:35:45;92762.97;;;20.04;100.00
6038;BME280;3047;42.600;23.470;2023-07-31T02:38:12;92743.59;;;20.00;100.00
6038;BME280;3047;42.600;23.470;2023-07-31T02:40:39;92770.81;;;20.27;100.00
6038;BME280;3047;42.600;23.470;2023-07-31T02:43:06;92770.69;;;20.28;100.00
6038;BME280;3047;42.600;23.470;2023-07-31T02:45:33;92766.31;;;20.17;100.00
6038;BME280;3047;42.600;23.470;2023-07-31T02:47:59;92766.50;;;20.27;100.00
6038;BME280;3047;42.600;23.470;2023-07-31T02:50:27;92767.25;;;20.40;100.00
6038;BME280;3047;42.600;23.470;2023-07-31T02:52:54;92725.72;;;20.11;100.00
6038;BME280;3047;42.600;23.470;2023-07-31T02:55:21;92769.81;;;20.40;100.00
6038;BME280;3047;42.600;23.470;2023-07-31T02:57:48;92763.47;;;20.33;100.00
6038;BME280;3047;42.600;23.470;2023-07-31T03:00:15;92772.69;;;20.48;100.00
6038;BME280;3047;42.600;23.470;2023-07-31T03:02:41;92766.88;;;20.58;100.00
6038;BME280;3047;42.600;23.470;2023-07-31T03:05:08;92769.72;;;20.66;100.00
6038;BME280;3047;42.600;23.470;2023-07-31T03:07:36;92779.03;;;20.56;100.00
6038;BME280;3047;42.600;23.470;2023-07-31T03:10:03;92770.84;;;20.51;100.00
6038;BME280;3047;42.600;23.470;2023-07-31T03:12:30;92782.09;;;20.48;100.00
6038;BME280;3047;42.600;23.470;2023-07-31T03:14:57;92782.88;;;20.61;100.00
6038;BME280;3047;42.600;23.470;2023-07-31T03:17:23;92782.34;;;20.69;100.00
6038;BME280;3047;42.600;23.470;2023-07-31T03:19:50;92782.00;;;20.73;100.00
6038;BME280;3047;42.600;23.470;2023-07-31T03:22:17;92786.22;;;20.74;100.00
6038;BME280;3047;42.600;23.470;2023-07-31T03:24:45;92779.00;;;20.80;100.00
6038;BME280;3047;42.600;23.470;2023-07-31T03:27:11;92779.59;;;20.83;100.00
6038;BME280;3047;42.600;23.470;2023-07-31T03:29:38;92761.09;;;20.67;100.00
6038;BME280;3047;42.600;23.470;2023-07-31T03:32:05;92789.97;;;20.82;100.00
6038;BME280;3047;42.600;23.470;2023-07-31T03:34:32;92780.41;;;20.84;100.00
6038;BME280;3047;42.600;23.470;2023-07-31T03:36:59;92795.59;;;20.87;100.00
6038;BME280;3047;42.600;23.470;2023-07-31T03:39:26;92799.66;;;20.89;100.00
6038;BME280;3047;42.600;23.470;2023-07-31T03:41:54;92791.84;;;20.80;100.00
6038;BME280;3047;42.600;23.470;2023-07-31T03:44:21;92798.19;;;20.63;100.00
6038;BME280;3047;42.600;23.470;2023-07-31T03:46:47;92804.28;;;20.73;100.00
6038;BME280;3047;42.600;23.470;2023-07-31T03:49:14;92791.84;;;20.56;100.00
6038;BME280;3047;42.600;23.470;2023-07-31T03:51:41;92795.09;;;20.58;100.00
6038;BME280;3047;42.600;23.470;2023-07-31T03:54:08;92804.94;;;20.64;100.00
6038;BME280;3047;42.600;23.470;2023-07-31T03:56:34;92806.25;;;20.69;100.00
6038;BME280;3047;42.600;23.470;2023-07-31T03:59:02;92798.53;;;20.69;100.00
6038;BME280;3047;42.600;23.470;2023-07-31T04:01:29;92799.88;;;20.75;100.00
6038;BME280;3047;42.600;23.470;2023-07-31T04:03:56;92804.75;;;20.78;100.00
6038;BME280;3047;42.600;23.470;2023-07-31T04:06:22;92802.25;;;20.65;100.00
6038;BME280;3047;42.600;23.470;2023-07-31T04:08:49;92818.19;;;20.82;100.00
6038;BME280;3047;42.600;23.470;2023-07-31T04:11:16;92814.75;;;20.70;100.00
6038;BME280;3047;42.600;23.470;2023-07-31T04:13:42;92814.75;;;20.70;100.00
6038;BME280;3047;42.600;23.470;2023-07-31T04:16:10;92818.88;;;20.72;100.00
6038;BME280;3047;42.600;23.470;2023-07-31T04:18:37;92822.50;;;20.81;100.00
6038;BME280;3047;42.600;23.470;2023-07-31T04:21:04;92770.53;;;20.42;100.00
6038;BME280;3047;42.600;23.470;2023-07-31T04:23:31;92818.38;;;20.67;100.00
6038;BME280;3047;42.600;23.470;2023-07-31T04:25:58;92833.66;;;20.69;100.00
6038;BME280;3047;42.600;23.470;2023-07-31T04:28:25;92820.34;;;20.64;100.00
6038;BME280;3047;42.600;23.470;2023-07-31T04:30:51;92805.50;;;20.56;100.00
6038;BME280;3047;42.600;23.470;2023-07-31T04:33:19;92822.03;;;20.76;100.00
6038;BME280;3047;42.600;23.470;2023-07-31T04:35:50;92828.78;;;20.77;100.00
6038;BME280;3047;42.600;23.470;2023-07-31T04:38:17;92821.28;;;20.87;100.00
6038;BME280;3047;42.600;23.470;2023-07-31T04:40:44;92826.56;;;20.72;100.00
6038;BME280;3047;42.600;23.470;2023-07-31T04:43:11;92823.41;;;20.69;100.00
6038;BME280;3047;42.600;23.470;2023-07-31T04:45:37;92827.03;;;20.78;100.00
6038;BME280;3047;42.600;23.470;2023-07-31T04:48:04;92817.03;;;20.74;100.00
6038;BME280;3047;42.600;23.470;2023-07-31T04:50:32;92822.97;;;20.75;100.00
6038;BME280;3047;42.600;23.470;2023-07-31T04:52:59;92830.28;;;20.68;100.00
6038;BME280;3047;42.600;23.470;2023-07-31T04:55:25;92822.44;;;20.83;100.00
6038;BME280;3047;42.600;23.470;2023-07-31T04:57:52;92825.09;;;20.81;100.00
6038;BME280;3047;42.600;23.470;2023-07-31T05:00:19;92819.81;;;20.71;100.00
6038;BME280;3047;42.600;23.470;2023-07-31T05:02:46;92819.72;;;20.84;100.00
6038;BME280;3047;42.600;23.470;2023-07-31T05:05:12;92826.06;;;20.91;100.00
6038;BME280;3047;42.600;23.470;2023-07-31T05:07:40;92827.56;;;20.94;100.00
6038;BME280;3047;42.600;23.470;2023-07-31T05:10:09;92834.13;;;20.98;100.00
6038;BME280;3047;42.600;23.470;2023-07-31T05:12:35;92836.13;;;20.94;100.00
6038;BME280;3047;42.600;23.470;2023-07-31T05:15:02;92803.91;;;20.66;100.00
6038;BME280;3047;42.600;23.470;2023-07-31T05:17:29;92830.34;;;20.80;100.00
6038;BME280;3047;42.600;23.470;2023-07-31T05:19:56;92831.59;;;20.74;100.00
6038;BME280;3047;42.600;23.470;2023-07-31T05:22:22;92830.00;;;20.84;100.00
6038;BME280;3047;42.600;23.470;2023-07-31T05:24:51;92809.41;;;20.73;100.00
6038;BME280;3047;42.600;23.470;2023-07-31T05:27:19;92807.25;;;20.80;100.00
6038;BME280;3047;42.600;23.470;2023-07-31T05:29:46;92825.94;;;20.93;100.00
6038;BME280;3047;42.600;23.470;2023-07-31T05:32:12;92821.28;;;20.98;100.00
6038;BME280;3047;42.600;23.470;2023-07-31T05:34:39;92827.63;;;21.05;100.00
6038;BME280;3047;42.600;23.470;2023-07-31T05:37:06;92814.34;;;21.11;100.00
6038;BME280;3047;42.600;23.470;2023-07-31T05:39:32;92814.19;;;21.02;100.00
6038;BME280;3047;42.600;23.470;2023-07-31T05:42:00;92810.31;;;20.96;100.00
6038;BME280;3047;42.600;23.470;2023-07-31T05:44:27;92780.66;;;20.92;100.00
6038;BME280;3047;42.600;23.470;2023-07-31T05:46:54;92813.53;;;21.22;100.00
6038;BME280;3047;42.600;23.470;2023-07-31T05:49:20;92816.47;;;21.29;100.00
6038;BME280;3047;42.600;23.470;2023-07-31T05:51:47;92814.56;;;21.43;100.00
6038;BME280;3047;42.600;23.470;2023-07-31T05:54:14;92818.78;;;21.56;100.00
6038;BME280;3047;42.600;23.470;2023-07-31T05:56:40;92825.66;;;21.55;100.00
6038;BME280;3047;42.600;23.470;2023-07-31T05:59:11;92818.66;;;21.57;100.00
6038;BME280;3047;42.600;23.470;2023-07-31T06:01:38;92814.31;;;21.46;100.00
6038;BME280;3047;42.600;23.470;2023-07-31T06:04:05;92826.00;;;21.51;100.00
6038;BME280;3047;42.600;23.470;2023-07-31T06:06:32;92827.06;;;21.48;100.00
6038;BME280;3047;42.600;23.470;2023-07-31T06:08:58;92828.47;;;21.52;100.00
6038;BME280;3047;42.600;23.470;2023-07-31T06:11:25;92840.25;;;21.55;100.00
6038;BME280;3047;42.600;23.470;2023-07-31T06:13:52;92829.16;;;21.54;100.00
6038;BME280;3047;42.600;23.470;2023-07-31T06:16:20;92829.97;;;21.55;100.00
6038;BME280;3047;42.600;23.470;2023-07-31T06:18:47;92840.28;;;21.66;100.00
6038;BME280;3047;42.600;23.470;2023-07-31T06:21:13;92838.06;;;21.72;100.00
6038;BME280;3047;42.600;23.470;2023-07-31T06:23:40;92841.41;;;21.51;100.00
6038;BME280;3047;42.600;23.470;2023-07-31T06:26:07;92843.06;;;21.63;100.00
6038;BME280;3047;42.600;23.470;2023-07-31T06:28:34;92846.59;;;21.73;100.00
6038;BME280;3047;42.600;23.470;2023-07-31T06:31:01;92842.75;;;21.67;100.00
6038;BME280;3047;42.600;23.470;2023-07-31T06:33:29;92838.53;;;21.66;100.00
6038;BME280;3047;42.600;23.470;2023-07-31T06:35:56;92844.63;;;21.77;100.00
6038;BME280;3047;42.600;23.470;2023-07-31T06:38:25;92831.66;;;21.89;100.00
6038;BME280;3047;42.600;23.470;2023-07-31T06:40:52;92826.97;;;22.06;100.00
6038;BME280;3047;42.600;23.470;2023-07-31T06:43:19;92791.56;;;21.98;100.00
6038;BME280;3047;42.600;23.470;2023-07-31T06:45:45;92819.97;;;22.19;100.00
6038;BME280;3047;42.600;23.470;2023-07-31T06:48:13;92816.34;;;22.33;100.00
6038;BME280;3047;42.600;23.470;2023-07-31T06:50:41;92811.06;;;22.34;100.00
6038;BME280;3047;42.600;23.470;2023-07-31T06:53:08;92815.47;;;22.43;100.00
6038;BME280;3047;42.600;23.470;2023-07-31T06:55:35;92831.13;;;22.52;100.00
6038;BME280;3047;42.600;23.470;2023-07-31T06:58:02;92802.88;;;22.73;100.00
6038;BME280;3047;42.600;23.470;2023-07-31T07:00:28;92834.69;;;22.94;100.00
6038;BME280;3047;42.600;23.470;2023-07-31T07:02:55;92830.78;;;23.00;100.00
6038;BME280;3047;42.600;23.470;2023-07-31T07:05:22;92834.63;;;23.05;100.00
6038;BME280;3047;42.600;23.470;2023-07-31T07:07:50;92840.88;;;22.80;100.00
6038;BME280;3047;42.600;23.470;2023-07-31T07:10:17;92843.44;;;22.80;100.00
6038;BME280;3047;42.600;23.470;2023-07-31T07:12:44;92841.22;;;22.87;100.00
6038;BME280;3047;42.600;23.470;2023-07-31T07:15:11;92844.59;;;22.87;100.00
6038;BME280;3047;42.600;23.470;2023-07-31T07:17:37;92848.59;;;22.80;100.00
6038;BME280;3047;42.600;23.470;2023-07-31T07:20:05;92849.09;;;22.74;100.00
6038;BME280;3047;42.600;23.470;2023-07-31T07:22:33;92845.50;;;22.65;100.00
6038;BME280;3047;42.600;23.470;2023-07-31T07:25:01;92836.50;;;22.60;100.00
6038;BME280;3047;42.600;23.470;2023-07-31T07:27:27;92851.78;;;22.73;100.00
6038;BME280;3047;42.600;23.470;2023-07-31T07:29:54;92839.69;;;22.95;100.00
6038;BME280;3047;42.600;23.470;2023-07-31T07:32:21;92845.69;;;23.17;100.00
6038;BME280;3047;42.600;23.470;2023-07-31T07:34:48;92837.53;;;23.33;98.65
6038;BME280;3047;42.600;23.470;2023-07-31T07:37:15;92846.25;;;23.41;99.66
6038;BME280;3047;42.600;23.470;2023-07-31T07:39:42;92839.22;;;23.43;98.71
6038;BME280;3047;42.600;23.470;2023-07-31T07:42:10;92857.63;;;23.71;98.23
6038;BME280;3047;42.600;23.470;2023-07-31T07:44:37;92851.06;;;23.88;96.78
6038;BME280;3047;42.600;23.470;2023-07-31T07:47:04;92851.06;;;24.18;95.44
6038;BME280;3047;42.600;23.470;2023-07-31T07:49:33;92857.56;;;24.44;91.97
6038;BME280;3047;42.600;23.470;2023-07-31T07:52:00;92866.56;;;24.69;91.32
6038;BME280;3047;42.600;23.470;2023-07-31T07:54:27;92867.53;;;24.87;87.81
6038;BME280;3047;42.600;23.470;2023-07-31T07:56:53;92867.03;;;25.03;89.10
6038;BME280;3047;42.600;23.470;2023-07-31T07:59:21;92874.50;;;25.06;87.65
6038;BME280;3047;42.600;23.470;2023-07-31T08:01:48;92872.06;;;25.04;87.38
6038;BME280;3047;42.600;23.470;2023-07-31T08:04:15;92865.97;;;25.15;88.15
6038;BME280;3047;42.600;23.470;2023-07-31T08:06:41;92867.88;;;25.23;90.55
6038;BME280;3047;42.600;23.470;2023-07-31T08:09:08;92865.69;;;25.18;88.62
6038;BME280;3047;42.600;23.470;2023-07-31T08:11:35;92858.59;;;25.01;nan
6038;BME280;3047;42.600;23.470;2023-07-31T08:14:01;92850.81;;;24.91;86.99
6038;BME280;3047;42.600;23.470;2023-07-31T08:16:32;92861.03;;;25.02;87.07
6038;BME280;3047;42.600;23.470;2023-07-31T08:18:59;92852.75;;;24.89;87.07
6038;BME280;3047;42.600;23.470;2023-07-31T08:21:25;92852.34;;;24.84;89.60
6038;BME280;3047;42.600;23.470;2023-07-31T08:23:52;92855.09;;;25.21;85.29
6038;BME280;3047;42.600;23.470;2023-07-31T08:26:19;92852.22;;;25.53;85.69
6038;BME280;3047;42.600;23.470;2023-07-31T08:28:46;92865.03;;;25.45;83.50
6038;BME280;3047;42.600;23.470;2023-07-31T08:31:13;92869.38;;;25.45;83.88
6038;BME280;3047;42.600;23.470;2023-07-31T08:33:41;92835.59;;;25.65;83.08
6038;BME280;3047;42.600;23.470;2023-07-31T08:36:08;92855.63;;;26.10;81.49
6038;BME280;3047;42.600;23.470;2023-07-31T08:38:34;92859.09;;;26.01;79.79
6038;BME280;3047;42.600;23.470;2023-07-31T08:41:02;92836.28;;;26.05;80.70
6038;BME280;3047;42.600;23.470;2023-07-31T08:43:30;92856.59;;;26.37;79.94
6038;BME280;3047;42.600;23.470;2023-07-31T08:45:57;92847.25;;;26.81;76.58
6038;BME280;3047;42.600;23.470;2023-07-31T08:48:24;92834.47;;;26.52;75.19
6038;BME280;3047;42.600;23.470;2023-07-31T08:50:53;92850.94;;;26.61;74.16
6038;BME280;3047;42.600;23.470;2023-07-31T08:53:20;92849.00;;;26.63;75.13
6038;BME280;3047;42.600;23.470;2023-07-31T08:55:47;92829.25;;;26.34;76.07
6038;BME280;3047;42.600;23.470;2023-07-31T08:58:15;92850.88;;;26.43;77.31
6038;BME280;3047;42.600;23.470;2023-07-31T09:00:45;92844.06;;;26.70;78.28
6038;BME280;3047;42.600;23.470;2023-07-31T09:03:14;92849.28;;;27.05;77.75
6038;BME280;3047;42.600;23.470;2023-07-31T09:05:42;92851.38;;;27.20;74.00
6038;BME280;3047;42.600;23.470;2023-07-31T09:08:12;92843.66;;;27.46;72.64
6038;BME280;3047;42.600;23.470;2023-07-31T09:10:41;92840.91;;;27.91;71.24
6038;BME280;3047;42.600;23.470;2023-07-31T09:13:08;92826.34;;;27.72;67.91
6038;BME280;3047;42.600;23.470;2023-07-31T09:15:35;92841.06;;;27.90;69.24
6038;BME280;3047;42.600;23.470;2023-07-31T09:18:03;92823.06;;;27.88;71.11
6038;BME280;3047;42.600;23.470;2023-07-31T09:20:30;92839.41;;;28.15;65.76
6038;BME280;3047;42.600;23.470;2023-07-31T09:23:05;92826.66;;;28.29;67.87
6038;BME280;3047;42.600;23.470;2023-07-31T09:25:34;92825.66;;;28.22;66.43
6038;BME280;3047;42.600;23.470;2023-07-31T09:28:01;92821.09;;;28.16;68.75
6038;BME280;3047;42.600;23.470;2023-07-31T09:30:29;92824.88;;;28.30;69.42
6038;BME280;3047;42.600;23.470;2023-07-31T09:33:01;92825.78;;;28.13;66.50
6038;BME280;3047;42.600;23.470;2023-07-31T09:35:29;92834.34;;;27.79;68.96
6038;BME280;3047;42.600;23.470;2023-07-31T09:37:58;92822.97;;;27.54;68.29
6038;BME280;3047;42.600;23.470;2023-07-31T09:40:26;92821.72;;;27.40;69.31
6038;BME280;3047;42.600;23.470;2023-07-31T09:42:56;92822.44;;;27.50;69.13
6038;BME280;3047;42.600;23.470;2023-07-31T09:45:23;92816.41;;;27.68;70.72
6038;BME280;3047;42.600;23.470;2023-07-31T09:47:50;92813.16;;;27.66;69.18
6038;BME280;3047;42.600;23.470;2023-07-31T09:50:16;92813.19;;;27.48;66.00
6038;BME280;3047;42.600;23.470;2023-07-31T09:52:43;92813.16;;;27.40;67.89
6038;BME280;3047;42.600;23.470;2023-07-31T09:55:10;92791.72;;;27.02;66.63
6038;BME280;3047;42.600;23.470;2023-07-31T09:57:39;92819.66;;;26.90;68.11
6038;BME280;3047;42.600;23.470;2023-07-31T10:00:09;92809.38;;;26.98;67.25
6038;BME280;3047;42.600;23.470;2023-07-31T10:02:37;92811.38;;;26.86;66.77
6038;BME280;3047;42.600;23.470;2023-07-31T10:05:06;92804.53;;;26.68;70.09
6038;BME280;3047;42.600;23.470;2023-07-31T10:07:36;92804.59;;;26.58;69.74
6038;BME280;3047;42.600;23.470;2023-07-31T10:10:06;92810.41;;;26.32;70.34
6038;BME280;3047;42.600;23.470;2023-07-31T10:12:33;92811.03;;;26.54;71.31
6038;BME280;3047;42.600;23.470;2023-07-31T10:15:01;92814.03;;;26.49;71.08
6038;BME280;3047;42.600;23.470;2023-07-31T10:17:29;92815.31;;;26.35;72.78
6038;BME280;3047;42.600;23.470;2023-07-31T10:19:58;92801.22;;;26.20;74.18
6038;BME280;3047;42.600;23.470;2023-07-31T10:22:26;92783.88;;;26.03;74.40
6038;BME280;3047;42.600;23.470;2023-07-31T10:24:54;92809.53;;;26.24;72.13
6038;BME280;3047;42.600;23.470;2023-07-31T10:27:23;92814.25;;;26.28;71.72
6038;BME280;3047;42.600;23.470;2023-07-31T10:29:51;92797.59;;;26.13;73.82
6038;BME280;3047;42.600;23.470;2023-07-31T10:32:19;92805.53;;;26.02;72.90
6038;BME280;3047;42.600;23.470;2023-07-31T10:34:49;92804.41;;;26.04;70.82
6038;BME280;3047;42.600;23.470;2023-07-31T10:37:23;92786.19;;;25.96;72.94
6038;BME280;3047;42.600;23.470;2023-07-31T10:39:58;92809.56;;;26.14;74.40
6038;BME280;3047;42.600;23.470;2023-07-31T10:42:30;92793.63;;;26.09;72.12
6038;BME280;3047;42.600;23.470;2023-07-31T10:44:58;92794.38;;;26.01;72.59
6038;BME280;3047;42.600;23.470;2023-07-31T10:47:25;92788.75;;;26.06;72.30
6038;BME280;3047;42.600;23.470;2023-07-31T10:50:10;92793.53;;;26.28;73.60
6038;BME280;3047;42.600;23.470;2023-07-31T10:52:37;92788.69;;;26.25;70.77
6038;BME280;3047;42.600;23.470;2023-07-31T10:55:15;92793.31;;;26.49;71.52
6038;BME280;3047;42.600;23.470;2023-07-31T10:57:44;92778.63;;;26.40;70.31
6038;BME280;3047;42.600;23.470;2023-07-31T11:00:23;92783.13;;;26.48;69.25
6038;BME280;3047;42.600;23.470;2023-07-31T11:02:58;92783.28;;;26.46;69.80
6038;BME280;3047;42.600;23.470;2023-07-31T11:05:51;92781.00;;;26.33;69.76
6038;BME280;3047;42.600;23.470;2023-07-31T11:08:21;92756.69;;;26.17;69.56
6038;BME280;3047;42.600;23.470;2023-07-31T11:10:50;92781.81;;;26.34;68.46
6038;BME280;3047;42.600;23.470;2023-07-31T11:13:17;92783.00;;;26.39;66.86
6038;BME280;3047;42.600;23.470;2023-07-31T11:15:44;92779.97;;;26.44;68.29
6038;BME280;3047;42.600;23.470;2023-07-31T11:18:11;92779.78;;;26.28;68.38
6038;BME280;3047;42.600;23.470;2023-07-31T11:20:38;92773.28;;;26.24;68.56
6038;BME280;3047;42.600;23.470;2023-07-31T11:23:08;92775.03;;;26.23;70.61
6038;BME280;3047;42.600;23.470;2023-07-31T11:25:36;92769.63;;;26.17;67.52
6038;BME280;3047;42.600;23.470;2023-07-31T11:28:05;92768.53;;;26.19;67.97
6038;BME280;3047;42.600;23.470;2023-07-31T11:30:31;92767.34;;;26.13;68.95
6038;BME280;3047;42.600;23.470;2023-07-31T11:33:00;92769.50;;;26.18;70.83
6038;BME280;3047;42.600;23.470;2023-07-31T11:35:28;92771.72;;;26.13;67.56
6038;BME280;3047;42.600;23.470;2023-07-31T11:37:55;92753.44;;;25.87;67.99
6038;BME280;3047;42.600;23.470;2023-07-31T11:40:23;92770.66;;;26.06;70.70
6038;BME280;3047;42.600;23.470;2023-07-31T11:42:54;92771.19;;;26.09;72.68
6038;BME280;3047;42.600;23.470;2023-07-31T11:45:21;92760.59;;;26.21;67.61
6038;BME280;3047;42.600;23.470;2023-07-31T11:47:51;92772.75;;;26.20;70.07
6038;BME280;3047;42.600;23.470;2023-07-31T11:50:18;92766.38;;;26.14;69.41
6038;BME280;3047;42.600;23.470;2023-07-31T11:52:45;92761.56;;;26.20;66.28
6038;BME280;3047;42.600;23.470;2023-07-31T11:55:12;92737.09;;;26.14;67.20
6038;BME280;3047;42.600;23.470;2023-07-31T11:57:43;92763.63;;;26.44;68.65
6038;BME280;3047;42.600;23.470;2023-07-31T12:00:13;92761.31;;;26.41;66.69
6038;BME280;3047;42.600;23.470;2023-07-31T12:02:40;92759.84;;;26.38;67.50
6038;BME280;3047;42.600;23.470;2023-07-31T12:05:10;92764.97;;;26.48;64.87
6038;BME280;3047;42.600;23.470;2023-07-31T12:07:49;92759.16;;;26.36;65.97
6038;BME280;3047;42.600;23.470;2023-07-31T12:10:27;92762.38;;;26.48;65.85
6038;BME280;3047;42.600;23.470;2023-07-31T12:13:00;92755.97;;;26.52;68.29
6038;BME280;3047;42.600;23.470;2023-07-31T12:15:34;92754.41;;;26.59;66.12
6038;BME280;3047;42.600;23.470;2023-07-31T12:18:04;92755.22;;;26.59;67.37
6038;BME280;3047;42.600;23.470;2023-07-31T12:20:32;92729.84;;;26.63;67.31
6038;BME280;3047;42.600;23.470;2023-07-31T12:22:59;92740.47;;;26.96;66.80
6038;BME280;3047;42.600;23.470;2023-07-31T12:25:30;92738.47;;;27.25;65.91
6038;BME280;3047;42.600;23.470;2023-07-31T12:27:56;92731.84;;;27.57;63.31
6038;BME280;3047;42.600;23.470;2023-07-31T12:30:28;92737.59;;;27.69;63.44
6038;BME280;3047;42.600;23.470;2023-07-31T12:32:55;92717.34;;;27.46;61.08
6038;BME280;3047;42.600;23.470;2023-07-31T12:35:22;92730.69;;;27.51;64.02
6038;BME280;3047;42.600;23.470;2023-07-31T12:37:48;92725.97;;;27.47;62.39
6038;BME280;3047;42.600;23.470;2023-07-31T12:40:15;92722.53;;;27.46;61.38
6038;BME280;3047;42.600;23.470;2023-07-31T12:42:42;92715.13;;;27.51;61.82
6038;BME280;3047;42.600;23.470;2023-07-31T12:45:09;92716.44;;;27.29;61.59
6038;BME280;3047;42.600;23.470;2023-07-31T12:47:37;92716.09;;;27.24;62.32
6038;BME280;3047;42.600;23.470;2023-07-31T12:50:04;92715.88;;;27.18;62.29
6038;BME280;3047;42.600;23.470;2023-07-31T12:52:31;92709.06;;;27.17;65.01
6038;BME280;3047;42.600;23.470;2023-07-31T12:54:59;92710.16;;;27.14;62.36
6038;BME280;3047;42.600;23.470;2023-07-31T12:57:25;92708.97;;;27.08;63.40
6038;BME280;3047;42.600;23.470;2023-07-31T12:59:52;92710.59;;;27.09;65.20
6038;BME280;3047;42.600;23.470;2023-07-31T13:02:18;92698.72;;;26.99;63.94
6038;BME280;3047;42.600;23.470;2023-07-31T13:04:47;92695.91;;;26.92;64.45
6038;BME280;3047;42.600;23.470;2023-07-31T13:07:13;92706.72;;;26.87;65.77
6038;BME280;3047;42.600;23.470;2023-07-31T13:09:40;92701.38;;;27.07;63.22